Time;durP1;ratioP1;P1;durP2;ratioP2;P2;SDS_P1;SDS_P2;PMS_P1;PMS_P2;Temp;Humidity;BMP_temperature;BMP_pressure;BME280_temperature;BME280_humidity;BME280_pressure;Samples;Min_cycle;Max_cycle;Signal;HPM_P1;HPM_P2
2021/05/12 00:02:07;;;;;;;43.45;29.50;;;12.80;90.60;;;;;;5054156;28;20098;-36
2021/05/12 00:04:32;;;;;;;36.45;26.40;;;12.50;91.40;;;;;;5054141;28;20029;-36
2021/05/12 00:06:58;;;;;;;40.97;27.75;;;12.50;92.10;;;;;;5054064;28;20021;-36
2021/05/12 00:09:23;;;;;;;35.30;27.45;;;12.40;92.20;;;;;;5053887;28;20021;-36
2021/05/12 00:11:49;;;;;;;43.72;31.00;;;12.50;92.20;;;;;;5054240;28;20074;-35
2021/05/12 00:14:15;;;;;;;40.45;29.38;;;12.60;91.80;;;;;;5053805;28;20028;-36
2021/05/12 00:16:41;;;;;;;39.08;30.10;;;12.60;91.70;;;;;;5054853;28;20534;-36
2021/05/12 00:19:07;;;;;;;44.67;31.92;;;12.60;91.20;;;;;;5054135;28;20096;-35
2021/05/12 00:22:15;;;;;;;41.85;32.25;;;12.80;91.00;;;;;;5053943;28;20029;-35
2021/05/12 00:24:24;;;;;;;45.13;33.05;;;12.80;90.90;;;;;;5052565;28;20086;-36
2021/05/12 00:26:49;;;;;;;46.40;32.20;;;12.70;91.20;;;;;;5054029;28;20419;-36
2021/05/12 00:29:16;;;;;;;46.55;33.45;;;12.60;91.20;;;;;;5052365;28;20082;-35
2021/05/12 00:31:42;;;;;;;48.13;33.53;;;12.70;91.20;;;;;;5053743;28;20071;-36
2021/05/12 00:34:08;;;;;;;44.33;30.88;;;12.60;91.20;;;;;;5054587;28;20095;-36
2021/05/12 00:36:34;;;;;;;44.17;32.15;;;12.50;91.70;;;;;;5052989;28;20029;-36
2021/05/12 00:39:03;;;;;;;43.17;31.83;;;12.50;91.80;;;;;;5053580;28;20107;-36
2021/05/12 00:41:29;;;;;;;45.00;34.15;;;12.50;91.70;;;;;;5053928;28;20032;-36
2021/05/12 00:43:54;;;;;;;43.20;35.38;;;12.60;91.40;;;;;;5053315;28;20385;-36
2021/05/12 00:46:20;;;;;;;46.90;35.13;;;12.70;91.50;;;;;;5053832;28;20541;-36
2021/05/12 00:48:46;;;;;;;53.45;36.70;;;12.70;91.50;;;;;;5053567;28;20050;-36
2021/05/12 00:51:11;;;;;;;53.20;39.30;;;12.70;91.10;;;;;;5053612;28;20080;-35
2021/05/12 00:53:37;;;;;;;49.47;36.58;;;12.70;91.30;;;;;;5053134;28;20028;-35
2021/05/12 00:56:04;;;;;;;45.97;33.95;;;12.70;91.40;;;;;;5053199;28;20028;-35
2021/05/12 00:58:31;;;;;;;56.75;40.08;;;12.40;92.10;;;;;;5053151;28;20025;-35
2021/05/12 01:00:57;;;;;;;56.35;39.75;;;12.50;91.90;;;;;;5053045;28;20130;-35
2021/05/12 01:03:23;;;;;;;58.58;40.65;;;12.50;92.00;;;;;;5052970;28;20035;-36
2021/05/12 01:05:51;;;;;;;61.53;43.55;;;12.50;91.80;;;;;;5052974;28;20037;-35
2021/05/12 01:08:18;;;;;;;55.90;42.33;;;12.50;91.60;;;;;;5053206;28;20032;-35
2021/05/12 01:10:45;;;;;;;66.80;45.47;;;12.50;91.70;;;;;;5053182;28;20029;-35
2021/05/12 01:13:12;;;;;;;63.08;44.33;;;12.60;91.70;;;;;;5051656;28;20055;-35
2021/05/12 01:15:42;;;;;;;61.70;43.75;;;12.50;92.00;;;;;;5053062;28;20025;-35
2021/05/12 01:18:12;;;;;;;63.60;45.67;;;12.40;91.90;;;;;;5052901;28;20017;-36
2021/05/12 01:21:03;;;;;;;67.53;47.10;;;12.40;92.20;;;;;;5052863;28;20317;-35
2021/05/12 01:23:34;;;;;;;71.00;47.55;;;12.40;92.40;;;;;;5053684;28;20037;-35
2021/05/12 01:26:03;;;;;;;61.47;44.13;;;12.30;92.60;;;;;;5053039;28;20028;-35
2021/05/12 01:28:33;;;;;;;66.28;46.75;;;12.30;92.80;;;;;;5052793;28;20028;-35
2021/05/12 01:31:03;;;;;;;66.30;45.13;;;12.30;92.70;;;;;;5052971;28;20037;-35
2021/05/12 01:33:29;;;;;;;70.68;49.65;;;12.30;92.50;;;;;;5052687;28;20465;-35
2021/05/12 01:35:56;;;;;;;82.35;50.85;;;12.30;92.70;;;;;;5051505;28;20112;-35
2021/05/12 01:38:23;;;;;;;68.13;50.47;;;12.40;92.30;;;;;;5052908;28;20025;-35
2021/05/12 01:40:49;;;;;;;73.55;49.00;;;12.40;92.00;;;;;;5052085;28;20029;-35
2021/05/12 01:43:16;;;;;;;69.97;48.03;;;12.40;92.20;;;;;;5052620;28;20519;-35
2021/05/12 01:45:41;;;;;;;68.65;47.00;;;12.30;92.30;;;;;;5052669;28;20033;-35
2021/05/12 01:48:11;;;;;;;73.70;51.38;;;12.30;92.50;;;;;;5052903;28;20112;-35
2021/05/12 01:50:38;;;;;;;76.03;51.55;;;12.30;92.50;;;;;;5054508;28;20044;-35
2021/05/12 01:53:04;;;;;;;77.38;51.35;;;12.30;92.70;;;;;;5056661;28;20021;-35
2021/05/12 01:55:30;;;;;;;76.57;51.58;;;12.30;92.60;;;;;;5056553;28;20473;-35
2021/05/12 01:57:56;;;;;;;78.38;52.13;;;12.30;92.50;;;;;;5056322;28;20148;-36
2021/05/12 02:00:31;;;;;;;87.80;54.15;;;12.30;92.50;;;;;;5056249;28;20507;-35
2021/05/12 02:02:58;;;;;;;85.45;55.13;;;12.30;92.60;;;;;;5054924;28;20113;-35
2021/05/12 02:05:26;;;;;;;88.18;57.17;;;12.20;93.20;;;;;;5056163;28;20032;-35
2021/05/12 02:07:53;;;;;;;91.65;55.92;;;12.20;93.10;;;;;;5054650;28;20071;-35
2021/05/12 02:10:19;;;;;;;87.72;56.22;;;12.10;93.20;;;;;;5054513;28;20021;-35
2021/05/12 02:12:45;;;;;;;83.80;58.95;;;12.10;93.10;;;;;;5056174;28;20025;-35
2021/05/12 02:15:12;;;;;;;84.20;53.92;;;12.10;93.20;;;;;;5055879;28;20029;-42
2021/05/12 02:17:38;;;;;;;79.20;54.22;;;12.00;93.20;;;;;;5055812;28;20064;-35
2021/05/12 02:20:06;;;;;;;93.82;55.80;;;12.10;93.30;;;;;;5055824;28;20029;-35
2021/05/12 02:22:32;;;;;;;90.75;60.83;;;12.10;92.90;;;;;;5055696;28;20036;-35
2021/05/12 02:24:58;;;;;;;93.35;55.95;;;12.10;93.00;;;;;;5055708;28;20029;-35
2021/05/12 02:27:23;;;;;;;82.15;55.65;;;12.10;93.00;;;;;;5055883;28;20381;-35
2021/05/12 02:29:49;;;;;;;82.20;54.63;;;12.00;93.20;;;;;;5055917;28;20072;-35
2021/05/12 02:32:15;;;;;;;79.80;53.65;;;12.00;92.90;;;;;;5055553;28;20112;-35
2021/05/12 02:34:40;;;;;;;87.25;56.92;;;11.90;93.00;;;;;;5055532;28;20021;-39
2021/05/12 02:37:06;;;;;;;95.30;54.05;;;11.90;93.10;;;;;;5056224;28;20360;-35
2021/05/12 02:39:32;;;;;;;81.93;52.00;;;11.90;92.80;;;;;;5055540;28;20571;-35
2021/05/12 02:41:57;;;;;;;80.53;53.00;;;11.80;93.10;;;;;;5055535;28;20086;-35
2021/05/12 02:44:23;;;;;;;78.97;52.92;;;11.80;93.10;;;;;;5055427;28;20025;-35
2021/05/12 02:46:49;;;;;;;83.43;54.50;;;11.80;92.70;;;;;;5055358;28;20078;-35
2021/05/12 02:49:15;;;;;;;84.68;55.65;;;11.80;92.70;;;;;;5055303;28;20445;-35
2021/05/12 02:51:41;;;;;;;87.90;56.42;;;11.70;92.70;;;;;;5055796;28;20087;-34
2021/05/12 02:54:07;;;;;;;92.80;54.75;;;11.70;93.00;;;;;;5055546;28;20028;-34
2021/05/12 02:56:33;;;;;;;87.88;54.50;;;11.60;92.80;;;;;;5055376;28;20048;-34
2021/05/12 02:58:58;;;;;;;85.70;53.08;;;11.50;93.10;;;;;;5055141;28;20021;-35
2021/05/12 03:01:24;;;;;;;85.65;54.42;;;11.50;93.10;;;;;;5054826;28;20079;-35
2021/05/12 03:03:50;;;;;;;97.43;53.72;;;11.40;93.10;;;;;;5053733;28;20035;-35
2021/05/12 03:06:16;;;;;;;90.53;53.83;;;11.40;93.20;;;;;;5055075;28;20404;-35
2021/05/12 03:08:41;;;;;;;84.38;52.17;;;11.30;93.20;;;;;;5053888;28;20464;-35
2021/05/12 03:11:07;;;;;;;80.93;51.75;;;11.20;93.20;;;;;;5054880;28;20086;-35
2021/05/12 03:13:34;;;;;;;84.80;52.13;;;11.20;93.10;;;;;;5055122;28;20024;-35
2021/05/12 03:15:59;;;;;;;79.32;48.00;;;11.10;92.90;;;;;;5054769;28;20032;-35
2021/05/12 03:18:26;;;;;;;79.97;48.83;;;11.10;92.80;;;;;;5054729;28;20021;-35
2021/05/12 03:20:52;;;;;;;79.28;46.75;;;11.10;92.50;;;;;;5055788;28;20495;-35
2021/05/12 03:23:18;;;;;;;82.65;48.17;;;11.00;92.70;;;;;;5054733;28;20495;-35
2021/05/12 03:25:44;;;;;;;76.70;46.60;;;11.00;92.40;;;;;;5054898;28;20103;-35
2021/05/12 03:28:09;;;;;;;74.20;46.25;;;11.00;92.30;;;;;;5054655;28;20051;-35
2021/05/12 03:30:37;;;;;;;76.68;44.90;;;10.80;92.50;;;;;;5054778;28;20017;-35
2021/05/12 03:33:04;;;;;;;68.93;42.88;;;10.80;92.50;;;;;;5053241;28;20060;-34
2021/05/12 03:35:30;;;;;;;78.43;45.63;;;10.80;92.60;;;;;;5054690;28;20369;-34
2021/05/12 03:37:56;;;;;;;83.88;46.22;;;10.70;92.70;;;;;;5054654;28;20059;-35
2021/05/12 03:40:24;;;;;;;75.65;48.45;;;10.70;92.80;;;;;;5054671;28;20517;-35
2021/05/12 03:42:49;;;;;;;71.57;45.10;;;10.70;92.50;;;;;;5053178;28;20155;-35
2021/05/12 03:45:16;;;;;;;72.82;45.88;;;10.60;92.40;;;;;;5054532;28;20024;-35
2021/05/12 03:47:42;;;;;;;88.30;45.28;;;10.60;92.50;;;;;;5054264;28;20044;-35
2021/05/12 03:50:09;;;;;;;68.00;43.00;;;10.60;92.20;;;;;;5053966;28;20033;-35
2021/05/12 03:52:35;;;;;;;73.78;42.72;;;10.50;92.20;;;;;;5054470;28;20497;-35
2021/05/12 03:55:00;;;;;;;68.53;43.08;;;10.50;92.20;;;;;;5054039;28;20084;-34
2021/05/12 03:57:26;;;;;;;59.47;40.22;;;10.50;92.10;;;;;;5054111;28;20028;-34
2021/05/12 03:59:52;;;;;;;70.07;41.13;;;10.50;92.00;;;;;;5054026;28;20028;-35
2021/05/12 04:02:17;;;;;;;64.15;38.47;;;10.40;91.90;;;;;;5053925;28;20070;-35
2021/05/12 04:04:43;;;;;;;65.40;37.03;;;10.50;91.50;;;;;;5054174;28;20025;-35
2021/05/12 04:07:09;;;;;;;66.50;38.50;;;10.50;91.30;;;;;;5053910;28;20040;-35
2021/05/12 04:09:37;;;;;;;61.97;37.92;;;10.50;91.10;;;;;;5054126;28;20020;-35
2021/05/12 04:12:03;;;;;;;62.72;36.83;;;10.50;91.10;;;;;;5052923;28;20476;-35
2021/05/12 04:14:28;;;;;;;59.08;37.20;;;10.40;91.00;;;;;;5054083;28;20100;-35
2021/05/12 04:16:54;;;;;;;71.35;39.05;;;10.40;91.20;;;;;;5054013;28;20444;-35
2021/05/12 04:19:20;;;;;;;66.45;38.10;;;10.30;91.40;;;;;;5053660;28;20074;-34
2021/05/12 04:21:46;;;;;;;63.47;39.78;;;10.40;91.40;;;;;;5052653;28;20098;-35
2021/05/12 04:24:12;;;;;;;66.60;38.58;;;10.40;91.10;;;;;;5053588;28;20025;-35
2021/05/12 04:26:38;;;;;;;68.70;37.22;;;10.40;91.40;;;;;;5053834;28;20025;-35
2021/05/12 04:29:05;;;;;;;61.05;38.15;;;10.40;91.30;;;;;;5053919;28;20414;-35
2021/05/12 04:31:32;;;;;;;63.08;36.92;;;10.30;91.30;;;;;;5053433;28;20112;-35
2021/05/12 04:33:58;;;;;;;56.22;34.30;;;10.30;91.20;;;;;;5053683;28;20442;-35
2021/05/12 04:36:24;;;;;;;56.80;35.40;;;10.30;91.50;;;;;;5053526;28;20114;-35
2021/05/12 04:38:49;;;;;;;55.90;33.03;;;10.40;90.90;;;;;;5053343;28;20401;-35
2021/05/12 04:41:17;;;;;;;67.53;36.47;;;10.30;91.10;;;;;;5053428;28;20031;-35
2021/05/12 04:43:43;;;;;;;61.95;37.42;;;10.40;90.70;;;;;;5053641;28;20028;-35
2021/05/12 04:46:09;;;;;;;60.70;34.83;;;10.40;90.70;;;;;;5053547;28;20536;-35
2021/05/12 04:48:34;;;;;;;52.78;34.45;;;10.40;90.70;;;;;;5053279;28;20025;-35
2021/05/12 04:51:00;;;;;;;66.18;37.20;;;10.40;90.80;;;;;;5053154;28;20432;-35
2021/05/12 04:53:25;;;;;;;60.13;35.30;;;10.40;90.70;;;;;;5053109;28;20021;-35
2021/05/12 04:55:51;;;;;;;54.58;34.55;;;10.30;91.50;;;;;;5053328;28;20381;-35
2021/05/12 04:58:17;;;;;;;55.70;34.08;;;10.30;91.50;;;;;;5053363;28;20078;-35
2021/05/12 05:00:42;;;;;;;56.15;34.90;;;10.30;91.40;;;;;;5053341;28;20037;-35
2021/05/12 05:03:08;;;;;;;53.90;37.97;;;10.40;91.20;;;;;;5053580;28;20114;-35
2021/05/12 05:05:34;;;;;;;56.35;36.25;;;10.40;90.80;;;;;;5053708;28;20020;-35
2021/05/12 05:07:59;;;;;;;56.25;35.47;;;10.50;91.00;;;;;;5053225;28;20028;-36
2021/05/12 05:10:25;;;;;;;59.60;35.92;;;10.50;91.00;;;;;;5051610;28;20033;-35
2021/05/12 05:12:51;;;;;;;56.88;34.38;;;10.60;90.70;;;;;;5053148;28;20036;-35
2021/05/12 05:15:17;;;;;;;57.17;34.20;;;10.70;90.70;;;;;;5053179;28;20098;-35
2021/05/12 05:17:43;;;;;;;50.83;31.20;;;10.70;90.30;;;;;;5053172;28;20079;-35
2021/05/12 05:20:11;;;;;;;52.50;30.30;;;10.80;89.90;;;;;;5052792;28;20017;-35
2021/05/12 05:22:37;;;;;;;51.63;29.02;;;10.80;89.70;;;;;;5052732;28;20037;-35
2021/05/12 05:25:04;;;;;;;41.90;28.50;;;10.90;88.90;;;;;;5056737;28;20086;-35
2021/05/12 05:27:29;;;;;;;46.05;28.38;;;10.80;89.30;;;;;;5056927;28;20057;-35
2021/05/12 05:29:55;;;;;;;44.28;27.75;;;10.80;89.50;;;;;;5056966;28;20497;-35
2021/05/12 05:32:21;;;;;;;46.70;28.17;;;11.00;88.90;;;;;;5057127;28;20029;-35
2021/05/12 05:34:48;;;;;;;38.30;25.92;;;11.10;88.70;;;;;;5056642;28;20094;-35
2021/05/12 05:37:14;;;;;;;41.15;29.15;;;11.00;88.80;;;;;;5056735;28;20033;-35
2021/05/12 05:39:40;;;;;;;39.75;27.73;;;11.00;89.00;;;;;;5056566;28;20024;-35
2021/05/12 05:42:10;;;;;;;45.20;28.95;;;11.30;88.40;;;;;;5055212;28;20033;-35
2021/05/12 05:44:38;;;;;;;37.38;24.70;;;11.30;88.30;;;;;;5056766;28;20035;-35
2021/05/12 05:47:04;;;;;;;40.28;26.65;;;11.10;89.00;;;;;;5056431;28;20392;-35
2021/05/12 05:49:30;;;;;;;45.35;28.30;;;11.10;89.30;;;;;;5056243;28;20044;-35
2021/05/12 05:51:56;;;;;;;42.95;25.10;;;11.20;89.50;;;;;;5056354;28;20032;-35
2021/05/12 05:54:23;;;;;;;47.22;28.23;;;11.30;89.20;;;;;;5056488;28;20056;-35
2021/05/12 05:56:49;;;;;;;42.35;26.92;;;11.60;88.10;;;;;;5056110;28;20013;-35
2021/05/12 05:59:15;;;;;;;43.80;27.15;;;11.50;87.70;;;;;;5056637;28;20100;-35
2021/05/12 06:01:41;;;;;;;52.40;29.27;;;11.60;87.90;;;;;;5055905;28;20067;-35
2021/05/12 06:04:07;;;;;;;43.25;27.08;;;11.60;87.70;;;;;;5056081;28;20380;-34
2021/05/12 06:06:33;;;;;;;46.28;27.45;;;11.70;87.80;;;;;;5056412;28;20468;-35
2021/05/12 06:08:59;;;;;;;56.92;28.08;;;11.80;87.30;;;;;;5056743;28;20107;-36
2021/05/12 06:11:25;;;;;;;52.08;26.05;;;11.80;87.30;;;;;;5055744;28;20493;-36
2021/05/12 06:13:51;;;;;;;48.97;26.33;;;11.80;87.30;;;;;;5056165;28;20028;-35
2021/05/12 06:16:18;;;;;;;41.10;25.98;;;11.80;86.60;;;;;;5055992;28;20040;-35
2021/05/12 06:18:44;;;;;;;39.03;25.67;;;11.80;86.80;;;;;;5055715;28;20082;-35
2021/05/12 06:21:13;;;;;;;39.53;23.33;;;11.80;86.10;;;;;;5056094;28;20434;-35
2021/05/12 06:23:40;;;;;;;35.40;21.73;;;11.90;86.20;;;;;;5054677;28;20095;-36
2021/05/12 06:26:14;;;;;;;46.38;24.48;;;12.00;85.50;;;;;;5055383;28;20113;-36
2021/05/12 06:28:40;;;;;;;35.13;21.95;;;12.20;84.80;;;;;;5055759;28;20033;-36
2021/05/12 06:31:09;;;;;;;38.75;20.63;;;12.30;84.20;;;;;;5055875;28;20036;-36
2021/05/12 06:33:35;;;;;;;33.92;21.60;;;12.50;83.60;;;;;;5055566;28;20021;-37
2021/05/12 06:36:01;;;;;;;38.58;21.65;;;12.90;82.60;;;;;;5054482;28;20104;-36
2021/05/12 06:38:27;;;;;;;27.05;18.42;;;13.00;82.10;;;;;;5053936;28;20048;-35
2021/05/12 06:40:53;;;;;;;32.90;18.38;;;12.90;81.70;;;;;;5055617;28;20032;-36
2021/05/12 06:43:19;;;;;;;27.20;16.35;;;13.30;79.80;;;;;;5055244;28;20056;-35
2021/05/12 06:45:45;;;;;;;35.83;17.17;;;13.30;79.20;;;;;;5055202;28;20029;-35
2021/05/12 06:48:10;;;;;;;27.98;17.45;;;13.50;78.60;;;;;;5055342;28;20033;-35
2021/05/12 06:50:36;;;;;;;30.13;17.08;;;13.60;78.70;;;;;;5055053;28;20041;-36
2021/05/12 06:53:02;;;;;;;27.60;16.40;;;13.40;78.90;;;;;;5055283;28;20457;-36
2021/05/12 06:55:28;;;;;;;25.58;16.48;;;13.70;78.60;;;;;;5055364;28;20024;-37
2021/05/12 06:57:53;;;;;;;30.15;17.63;;;13.80;77.10;;;;;;5055695;28;20492;-35
2021/05/12 07:00:20;;;;;;;26.80;16.90;;;13.80;77.70;;;;;;5056155;28;20017;-35
2021/05/12 07:02:46;;;;;;;27.17;15.48;;;13.80;77.20;;;;;;5055431;28;20489;-38
2021/05/12 07:05:16;;;;;;;29.95;16.35;;;13.50;78.40;;;;;;5055287;28;20107;-36
2021/05/12 07:07:42;;;;;;;24.17;16.80;;;13.70;78.00;;;;;;5054961;28;20083;-36
2021/05/12 07:10:09;;;;;;;20.92;14.57;;;13.70;77.80;;;;;;5055161;28;20021;-36
2021/05/12 07:12:35;;;;;;;22.23;14.90;;;13.60;78.20;;;;;;5053524;28;20500;-36
2021/05/12 07:15:06;;;;;;;23.90;16.05;;;13.60;78.50;;;;;;5054657;28;20085;-36
2021/05/12 07:17:32;;;;;;;29.60;15.85;;;13.80;77.50;;;;;;5054592;28;20416;-35
2021/05/12 07:19:58;;;;;;;30.23;13.30;;;14.00;75.70;;;;;;5054812;28;20071;-35
2021/05/12 07:22:27;;;;;;;31.35;15.43;;;14.40;74.70;;;;;;5054478;28;20520;-36
2021/05/12 07:24:52;;;;;;;28.15;14.05;;;14.30;75.90;;;;;;5053176;28;20029;-36
2021/05/12 07:27:19;;;;;;;25.67;12.88;;;14.30;74.70;;;;;;5054553;28;20087;-36
2021/05/12 07:29:45;;;;;;;21.80;12.05;;;14.30;75.20;;;;;;5054767;28;20033;-37
2021/05/12 07:32:14;;;;;;;19.70;11.50;;;14.50;73.60;;;;;;5054864;28;20384;-36
2021/05/12 07:34:40;;;;;;;17.48;11.13;;;14.50;72.30;;;;;;5052898;28;20021;-35
2021/05/12 07:37:06;;;;;;;20.75;12.27;;;14.70;72.30;;;;;;5054689;28;20082;-35
2021/05/12 07:39:32;;;;;;;18.10;11.38;;;14.80;70.90;;;;;;5053998;28;20017;-36
2021/05/12 07:42:02;;;;;;;15.80;10.07;;;15.30;70.00;;;;;;5054217;28;20021;-36
2021/05/12 07:44:28;;;;;;;15.02;10.02;;;15.50;69.70;;;;;;5054156;28;20033;-36
2021/05/12 07:46:54;;;;;;;16.95;10.50;;;15.20;68.30;;;;;;5054158;28;20036;-35
2021/05/12 07:49:19;;;;;;;15.95;9.65;;;15.70;66.90;;;;;;5052476;28;20123;-35
2021/05/12 07:51:45;;;;;;;15.80;9.55;;;16.00;66.70;;;;;;5053964;28;20040;-35
2021/05/12 07:54:11;;;;;;;12.07;8.05;;;16.40;64.00;;;;;;5053635;28;20036;-36
2021/05/12 07:56:36;;;;;;;18.60;8.85;;;15.70;66.00;;;;;;5054101;28;20113;-36
2021/05/12 07:59:02;;;;;;;16.33;8.98;;;15.80;65.90;;;;;;5053603;28;20021;-35
2021/05/12 08:01:32;;;;;;;12.77;8.57;;;16.80;63.40;;;;;;5054107;28;20025;-36
2021/05/12 08:03:58;;;;;;;19.60;9.75;;;17.70;60.00;;;;;;5052363;28;20154;-36
2021/05/12 08:06:24;;;;;;;13.93;8.57;;;17.20;60.50;;;;;;5052010;28;20059;-37
2021/05/12 08:08:50;;;;;;;15.10;9.00;;;17.50;60.30;;;;;;5052104;28;20060;-36
2021/05/12 08:11:16;;;;;;;12.10;8.20;;;16.90;61.80;;;;;;5053277;28;20075;-35
2021/05/12 08:13:41;;;;;;;20.13;11.23;;;16.60;63.20;;;;;;5051820;28;20031;-36
2021/05/12 08:16:07;;;;;;;16.95;10.05;;;16.50;63.10;;;;;;5053228;28;20056;-35
2021/05/12 08:18:33;;;;;;;16.30;9.18;;;16.80;63.00;;;;;;5053594;28;20025;-35
2021/05/12 08:21:00;;;;;;;13.13;8.73;;;18.00;59.10;;;;;;5053623;28;20078;-36
2021/05/12 08:23:25;;;;;;;13.02;9.40;;;18.40;57.70;;;;;;5053085;28;20059;-35
2021/05/12 08:25:51;;;;;;;15.43;8.95;;;18.60;55.60;;;;;;5052863;28;20503;-35
2021/05/12 08:28:17;;;;;;;15.25;9.48;;;18.40;56.90;;;;;;5051590;28;20029;-35
2021/05/12 08:30:47;;;;;;;17.17;9.60;;;19.30;54.00;;;;;;5053023;28;20111;-35
2021/05/12 08:33:16;;;;;;;15.17;9.47;;;19.70;52.70;;;;;;5053393;28;20469;-34
2021/05/12 08:35:46;;;;;;;15.13;8.95;;;19.60;50.80;;;;;;5053586;28;20028;-36
2021/05/12 08:38:21;;;;;;;10.30;8.40;;;18.80;52.90;;;;;;5052972;28;20021;-35
2021/05/12 08:40:47;;;;;;;14.85;10.05;;;17.30;58.30;;;;;;5053119;28;20119;-36
2021/05/12 08:43:15;;;;;;;15.32;10.60;;;16.40;60.50;;;;;;5051627;28;20029;-35
2021/05/12 08:45:44;;;;;;;18.75;9.18;;;17.50;57.00;;;;;;5052683;28;20025;-35
2021/05/12 08:48:14;;;;;;;12.68;9.70;;;18.10;56.20;;;;;;5052702;28;20067;-36
2021/05/12 08:50:40;;;;;;;12.75;8.05;;;17.90;57.10;;;;;;5052365;28;20140;-36
2021/05/12 08:53:06;;;;;;;11.15;6.68;;;18.60;54.30;;;;;;5052601;28;20028;-36
2021/05/12 08:55:33;;;;;;;11.93;8.70;;;17.80;55.80;;;;;;5052784;28;20035;-35
2021/05/12 08:58:00;;;;;;;17.50;9.20;;;16.80;60.90;;;;;;5052565;28;20023;-35
2021/05/12 09:00:26;;;;;;;14.90;9.48;;;16.50;63.40;;;;;;5052955;28;20025;-37
2021/05/12 09:02:52;;;;;;;19.15;12.00;;;16.70;63.60;;;;;;5052526;28;20076;-35
2021/05/12 09:05:19;;;;;;;14.02;7.55;;;17.30;62.00;;;;;;5052714;28;20025;-35
2021/05/12 09:07:46;;;;;;;14.02;7.97;;;17.80;57.90;;;;;;5053131;28;20495;-36
2021/05/12 09:10:12;;;;;;;12.98;7.45;;;18.30;55.30;;;;;;5053016;28;20087;-36
2021/05/12 09:12:42;;;;;;;11.57;7.82;;;18.70;54.30;;;;;;5052776;28;20104;-37
2021/05/12 09:15:10;;;;;;;11.48;9.23;;;18.30;56.00;;;;;;5053065;28;20047;-42
2021/05/12 09:17:40;;;;;;;12.60;8.40;;;17.40;58.30;;;;;;5053105;28;20017;-36
2021/05/12 09:20:21;;;;;;;12.70;8.15;;;17.30;59.60;;;;;;5052741;28;20028;-37
2021/05/12 09:23:00;;;;;;;11.77;8.80;;;17.90;59.00;;;;;;5053044;28;20481;-36
2021/05/12 09:25:31;;;;;;;11.95;8.63;;;19.20;53.90;;;;;;5052612;28;20032;-36
2021/05/12 09:28:17;;;;;;;9.32;7.18;;;18.80;53.80;;;;;;5052877;28;20052;-35
2021/05/12 09:30:48;;;;;;;13.57;9.20;;;18.50;55.30;;;;;;5051415;28;20498;-36
2021/05/12 09:33:34;;;;;;;8.20;6.10;;;18.50;56.60;;;;;;5051254;28;20116;-35
2021/05/12 09:36:00;;;;;;;11.05;6.05;;;18.10;54.80;;;;;;5052570;28;20025;-36
2021/05/12 09:38:29;;;;;;;8.82;6.13;;;17.50;55.60;;;;;;5052537;28;20112;-36
2021/05/12 09:41:09;;;;;;;9.65;6.40;;;17.30;57.00;;;;;;5052503;28;20043;-36
2021/05/12 09:43:37;;;;;;;12.88;7.75;;;16.90;58.90;;;;;;5052527;28;20021;-35
2021/05/12 09:46:25;;;;;;;10.32;5.43;;;17.30;58.40;;;;;;5052422;28;20029;-35
2021/05/12 09:48:59;;;;;;;12.38;7.18;;;18.60;54.60;;;;;;5052452;28;20048;-36
2021/05/12 09:51:29;;;;;;;9.43;6.63;;;18.10;54.60;;;;;;5052552;28;20137;-35
2021/05/12 09:54:20;;;;;;;9.60;5.05;;;17.70;56.70;;;;;;5052603;28;20420;-35
2021/05/12 09:56:52;;;;;;;10.40;5.80;;;17.30;56.60;;;;;;5052481;28;20098;-36
2021/05/12 09:59:21;;;;;;;10.35;6.50;;;17.30;56.80;;;;;;5052482;28;20025;-35
2021/05/12 10:01:49;;;;;;;15.18;7.65;;;17.20;57.10;;;;;;5052708;28;20021;-37
2021/05/12 10:04:21;;;;;;;15.90;9.38;;;16.30;60.20;;;;;;5052440;28;20025;-35
2021/05/12 10:06:47;;;;;;;15.07;9.27;;;16.20;61.40;;;;;;5052770;28;20032;-37
2021/05/12 10:09:26;;;;;;;20.80;11.38;;;16.20;62.50;;;;;;5052311;28;20025;-35
2021/05/12 10:12:01;;;;;;;14.60;9.85;;;16.10;63.00;;;;;;5055651;28;20024;-35
2021/05/12 10:14:26;;;;;;;14.57;10.55;;;16.60;62.60;;;;;;5056059;28;20135;-36
2021/05/12 10:16:52;;;;;;;18.23;9.63;;;17.20;60.10;;;;;;5057128;28;20025;-35
2021/05/12 10:19:19;;;;;;;14.30;10.45;;;17.30;59.40;;;;;;5056830;28;20021;-37
2021/05/12 10:21:46;;;;;;;14.57;10.93;;;17.40;59.80;;;;;;5056698;28;20369;-36
2021/05/12 10:24:12;;;;;;;15.60;10.63;;;17.40;58.80;;;;;;5056592;28;20029;-37
2021/05/12 10:26:41;;;;;;;15.30;9.63;;;17.10;60.20;;;;;;5055951;28;20074;-35
2021/05/12 10:29:07;;;;;;;14.10;10.45;;;16.90;59.90;;;;;;5056033;28;20033;-36
2021/05/12 10:31:33;;;;;;;14.18;10.05;;;17.00;60.80;;;;;;5055958;28;20090;-37
2021/05/12 10:34:01;;;;;;;13.13;9.55;;;16.90;61.00;;;;;;5055602;28;20017;-36
2021/05/12 10:36:26;;;;;;;12.57;10.07;;;16.40;60.90;;;;;;5055380;28;20031;-36
2021/05/12 10:38:52;;;;;;;16.67;10.73;;;16.90;60.30;;;;;;5055394;28;20021;-35
2021/05/12 10:41:43;;;;;;;12.38;10.63;;;17.20;58.30;;;;;;5055048;28;20112;-35
2021/05/12 10:46:56;;;;;;;14.52;9.95;;;19.10;54.10;;;;;;5055070;28;20457;-35
2021/05/12 10:49:23;;;;;;;20.23;10.77;;;19.30;52.90;;;;;;5053425;28;20163;-35
2021/05/12 10:51:50;;;;;;;16.63;10.55;;;18.80;52.00;;;;;;5054904;28;20025;-36
2021/05/12 10:54:37;;;;;;;11.13;9.20;;;18.80;50.70;;;;;;5054686;28;20029;-36
2021/05/12 10:57:03;;;;;;;13.63;9.68;;;18.60;52.10;;;;;;5053656;28;20496;-37
2021/05/12 10:59:29;;;;;;;11.90;9.52;;;18.70;52.60;;;;;;5053170;28;20021;-35
2021/05/12 11:01:55;;;;;;;9.75;7.47;;;18.90;51.90;;;;;;5054784;28;20052;-36
2021/05/12 11:04:23;;;;;;;10.82;6.43;;;18.80;49.40;;;;;;5054632;28;20132;-35
2021/05/12 11:06:52;;;;;;;10.60;6.28;;;18.40;50.30;;;;;;5053124;28;20059;-36
2021/05/12 11:09:42;;;;;;;13.00;6.50;;;18.30;50.20;;;;;;5055660;28;20381;-36
2021/05/12 11:12:16;;;;;;;15.10;7.82;;;17.90;50.40;;;;;;5054644;28;20025;-36
2021/05/12 11:14:54;;;;;;;14.98;11.57;;;17.80;50.90;;;;;;5054548;28;20033;-35
2021/05/12 11:17:23;;;;;;;12.30;7.78;;;17.70;51.50;;;;;;5054716;28;20025;-35
2021/05/12 11:20:02;;;;;;;12.32;8.40;;;17.80;51.30;;;;;;5054842;28;20067;-35
2021/05/12 11:25:03;;;;;;;19.83;7.90;;;18.10;51.00;;;;;;5054283;28;20461;-36
2021/05/12 11:32:37;;;;;;;9.27;5.97;;;17.60;51.80;;;;;;5054345;28;20029;-36
2021/05/12 11:35:03;;;;;;;;;;;17.50;51.90;;;;;;5055032;28;20021;-36
2021/05/12 11:37:32;;;;;;;10.35;6.80;;;17.80;52.40;;;;;;5052745;28;19995;-35
2021/05/12 11:39:58;;;;;;;15.65;8.25;;;18.00;51.70;;;;;;5053956;28;20021;-35
2021/05/12 11:42:35;;;;;;;9.98;6.88;;;18.00;51.30;;;;;;5054290;28;20074;-37
2021/05/12 11:45:06;;;;;;;10.43;7.35;;;17.40;51.10;;;;;;5054804;28;20028;-36
2021/05/12 11:47:33;;;;;;;8.90;7.13;;;18.00;50.30;;;;;;5054478;28;20036;-35
2021/05/12 11:49:59;;;;;;;12.77;8.48;;;18.10;50.30;;;;;;5053674;28;20033;-36
2021/05/12 11:52:30;;;;;;;13.20;8.50;;;18.80;48.30;;;;;;5053997;28;20029;-36
2021/05/12 11:55:09;;;;;;;16.05;8.15;;;18.70;48.30;;;;;;5053995;28;20035;-36
2021/05/12 11:57:36;;;;;;;10.93;8.13;;;18.60;49.60;;;;;;5052753;28;20389;-37
2021/05/12 12:00:06;;;;;;;9.23;6.93;;;18.90;49.10;;;;;;5053908;28;20131;-35
2021/05/12 12:02:31;;;;;;;11.82;7.60;;;18.10;50.60;;;;;;5053545;28;20036;-34
2021/05/12 12:05:03;;;;;;;13.57;6.90;;;18.20;49.80;;;;;;5053963;28;20033;-35
2021/05/12 12:07:30;;;;;;;10.45;7.43;;;17.90;49.00;;;;;;5053908;28;20349;-36
2021/05/12 12:10:05;;;;;;;9.55;6.88;;;17.60;50.50;;;;;;5053617;28;20036;-35
2021/05/12 12:12:33;;;;;;;10.20;7.38;;;17.70;50.50;;;;;;5053387;28;20314;-36
2021/05/12 12:15:08;;;;;;;13.35;6.88;;;17.60;49.90;;;;;;5053761;28;20036;-35
2021/05/12 12:17:34;;;;;;;11.45;6.70;;;17.90;49.70;;;;;;5053636;28;20318;-37
2021/05/12 12:20:04;;;;;;;12.60;8.20;;;18.10;49.30;;;;;;5053318;28;20024;-38
2021/05/12 12:22:30;;;;;;;;;;;18.30;47.90;;;;;;5052266;28;20029;-35
2021/05/12 12:24:56;;;;;;;10.35;5.85;;;18.50;47.90;;;;;;5053424;28;20383;-36
2021/05/12 12:27:22;;;;;;;6.75;5.85;;;18.80;46.40;;;;;;5052982;28;20110;-35
2021/05/12 12:29:51;;;;;;;9.75;4.95;;;18.10;47.30;;;;;;5053363;28;20029;-35
2021/05/12 12:32:18;;;;;;;5.50;5.00;;;17.90;47.10;;;;;;5052668;28;20020;-36
2021/05/12 12:34:46;;;;;;;6.85;4.97;;;17.90;47.50;;;;;;5051347;28;20048;-35
2021/05/12 12:37:16;;;;;;;9.75;5.53;;;18.30;47.10;;;;;;5053393;28;20469;-35
2021/05/12 12:39:54;;;;;;;7.70;5.28;;;18.80;45.60;;;;;;5053054;28;20465;-35
2021/05/12 12:42:28;;;;;;;9.98;6.00;;;18.70;44.90;;;;;;5053034;28;20052;-35
2021/05/12 12:44:54;;;;;;;9.85;5.25;;;18.20;45.80;;;;;;5052996;28;20055;-36